sensor_id;sensor_type;location;lat;lon;timestamp;temperature;humidity
7014;DHT22;3547;50.774;12.918;2023-03-23T00:04:07;12.40;99.90
7014;DHT22;3547;50.774;12.918;2023-03-23T00:06:37;12.40;99.90
7014;DHT22;3547;50.774;12.918;2023-03-23T00:09:06;12.40;99.90
7014;DHT22;3547;50.774;12.918;2023-03-23T00:11:32;12.40;99.90
7014;DHT22;3547;50.774;12.918;2023-03-23T00:20:03;12.40;99.90
7014;DHT22;3547;50.774;12.918;2023-03-23T00:22:32;12.40;99.90
7014;DHT22;3547;50.774;12.918;2023-03-23T00:30:16;12.40;99.90
7014;DHT22;3547;50.774;12.918;2023-03-23T00:32:47;12.40;99.90
7014;DHT22;3547;50.774;12.918;2023-03-23T00:35:20;12.40;99.90
7014;DHT22;3547;50.774;12.918;2023-03-23T00:37:51;12.40;99.90
7014;DHT22;3547;50.774;12.918;2023-03-23T00:40:17;12.40;99.90
7014;DHT22;3547;50.774;12.918;2023-03-23T00:42:43;12.40;99.90
7014;DHT22;3547;50.774;12.918;2023-03-23T00:45:09;12.40;99.90
7014;DHT22;3547;50.774;12.918;2023-03-23T00:47:40;12.50;99.90
7014;DHT22;3547;50.774;12.918;2023-03-23T00:50:12;12.50;99.90
7014;DHT22;3547;50.774;12.918;2023-03-23T00:52:40;12.40;99.90
7014;DHT22;3547;50.774;12.918;2023-03-23T00:55:06;12.40;99.90
7014;DHT22;3547;50.774;12.918;2023-03-23T00:57:33;12.40;99.90
7014;DHT22;3547;50.774;12.918;2023-03-23T01:00:18;12.40;99.90
7014;DHT22;3547;50.774;12.918;2023-03-23T01:22:44;12.40;99.90
7014;DHT22;3547;50.774;12.918;2023-03-23T01:25:15;12.40;99.90
7014;DHT22;3547;50.774;12.918;2023-03-23T01:30:24;12.50;99.90
7014;DHT22;3547;50.774;12.918;2023-03-23T01:32:51;12.50;99.90
7014;DHT22;3547;50.774;12.918;2023-03-23T01:35:21;12.50;99.90
7014;DHT22;3547;50.774;12.918;2023-03-23T01:38:39;12.50;99.90
7014;DHT22;3547;50.774;12.918;2023-03-23T01:47:03;12.50;99.90
7014;DHT22;3547;50.774;12.918;2023-03-23T01:54:41;12.50;99.90
7014;DHT22;3547;50.774;12.918;2023-03-23T01:57:14;12.60;99.90
7014;DHT22;3547;50.774;12.918;2023-03-23T02:02:15;12.60;99.90
7014;DHT22;3547;50.774;12.918;2023-03-23T02:13:22;12.60;99.90
7014;DHT22;3547;50.774;12.918;2023-03-23T02:16:03;12.60;99.90
7014;DHT22;3547;50.774;12.918;2023-03-23T02:18:54;12.60;99.90
7014;DHT22;3547;50.774;12.918;2023-03-23T02:24:55;12.60;99.90
7014;DHT22;3547;50.774;12.918;2023-03-23T02:33:44;12.50;99.90
7014;DHT22;3547;50.774;12.918;2023-03-23T02:41:24;12.40;99.90
7014;DHT22;3547;50.774;12.918;2023-03-23T02:43:56;12.40;99.90
7014;DHT22;3547;50.774;12.918;2023-03-23T02:46:23;12.40;99.90
7014;DHT22;3547;50.774;12.918;2023-03-23T02:48:56;12.40;99.90
7014;DHT22;3547;50.774;12.918;2023-03-23T02:51:24;12.30;99.90
7014;DHT22;3547;50.774;12.918;2023-03-23T02:53:53;12.30;99.90
7014;DHT22;3547;50.774;12.918;2023-03-23T02:56:23;12.20;99.90
7014;DHT22;3547;50.774;12.918;2023-03-23T02:58:49;12.30;99.90
7014;DHT22;3547;50.774;12.918;2023-03-23T03:01:45;12.30;99.90
7014;DHT22;3547;50.774;12.918;2023-03-23T03:04:13;12.30;99.90
7014;DHT22;3547;50.774;12.918;2023-03-23T03:11:54;12.20;99.90
7014;DHT22;3547;50.774;12.918;2023-03-23T03:22:22;12.20;99.90
7014;DHT22;3547;50.774;12.918;2023-03-23T03:24:51;12.20;99.90
7014;DHT22;3547;50.774;12.918;2023-03-23T03:30:04;12.20;99.90
7014;DHT22;3547;50.774;12.918;2023-03-23T03:32:49;12.20;99.90
7014;DHT22;3547;50.774;12.918;2023-03-23T03:35:21;12.20;99.90
7014;DHT22;3547;50.774;12.918;2023-03-23T03:37:48;12.20;99.90
7014;DHT22;3547;50.774;12.918;2023-03-23T03:40:17;12.20;99.90
7014;DHT22;3547;50.774;12.918;2023-03-23T03:45:19;12.10;99.90
7014;DHT22;3547;50.774;12.918;2023-03-23T03:47:57;12.10;99.90
7014;DHT22;3547;50.774;12.918;2023-03-23T03:50:27;12.00;99.90
7014;DHT22;3547;50.774;12.918;2023-03-23T03:52:54;12.00;99.90
7014;DHT22;3547;50.774;12.918;2023-03-23T03:55:21;12.00;99.90
7014;DHT22;3547;50.774;12.918;2023-03-23T04:08:25;11.80;99.90
7014;DHT22;3547;50.774;12.918;2023-03-23T04:13:25;11.80;99.90
7014;DHT22;3547;50.774;12.918;2023-03-23T04:18:27;11.80;99.90
7014;DHT22;3547;50.774;12.918;2023-03-23T04:23:41;11.80;99.90
7014;DHT22;3547;50.774;12.918;2023-03-23T04:34:01;11.90;99.90
7014;DHT22;3547;50.774;12.918;2023-03-23T04:36:28;11.80;99.90
7014;DHT22;3547;50.774;12.918;2023-03-23T04:39:04;11.90;99.90
7014;DHT22;3547;50.774;12.918;2023-03-23T04:41:32;11.90;99.90
7014;DHT22;3547;50.774;12.918;2023-03-23T04:43:58;11.90;99.90
7014;DHT22;3547;50.774;12.918;2023-03-23T04:46:28;11.90;99.90
7014;DHT22;3547;50.774;12.918;2023-03-23T04:49:17;11.90;99.90
7014;DHT22;3547;50.774;12.918;2023-03-23T04:55:12;11.90;99.90
7014;DHT22;3547;50.774;12.918;2023-03-23T04:57:39;11.90;99.90
7014;DHT22;3547;50.774;12.918;2023-03-23T05:00:07;12.00;99.90
7014;DHT22;3547;50.774;12.918;2023-03-23T05:02:38;12.00;99.90
7014;DHT22;3547;50.774;12.918;2023-03-23T05:05:06;12.00;99.90
7014;DHT22;3547;50.774;12.918;2023-03-23T05:07:33;12.00;99.90
7014;DHT22;3547;50.774;12.918;2023-03-23T05:12:40;12.10;99.90
7014;DHT22;3547;50.774;12.918;2023-03-23T05:15:07;12.10;99.90
7014;DHT22;3547;50.774;12.918;2023-03-23T05:17:37;12.20;99.90
7014;DHT22;3547;50.774;12.918;2023-03-23T05:22:58;12.20;99.90
7014;DHT22;3547;50.774;12.918;2023-03-23T05:28:54;12.40;99.90
7014;DHT22;3547;50.774;12.918;2023-03-23T05:31:24;12.40;99.90
7014;DHT22;3547;50.774;12.918;2023-03-23T05:33:51;12.40;99.90
7014;DHT22;3547;50.774;12.918;2023-03-23T05:36:18;12.40;99.90
7014;DHT22;3547;50.774;12.918;2023-03-23T05:39:09;12.40;99.90
7014;DHT22;3547;50.774;12.918;2023-03-23T05:41:39;12.40;99.90
7014;DHT22;3547;50.774;12.918;2023-03-23T05:50:21;12.50;99.90
7014;DHT22;3547;50.774;12.918;2023-03-23T06:03:07;12.70;99.90
7014;DHT22;3547;50.774;12.918;2023-03-23T06:05:33;12.80;99.90
7014;DHT22;3547;50.774;12.918;2023-03-23T06:07:59;12.80;99.90
7014;DHT22;3547;50.774;12.918;2023-03-23T06:13:15;12.80;99.90
7014;DHT22;3547;50.774;12.918;2023-03-23T06:18:23;12.80;99.90
7014;DHT22;3547;50.774;12.918;2023-03-23T06:33:52;12.80;99.90
7014;DHT22;3547;50.774;12.918;2023-03-23T06:36:23;12.80;99.90
7014;DHT22;3547;50.774;12.918;2023-03-23T06:38:49;13.00;99.90
7014;DHT22;3547;50.774;12.918;2023-03-23T06:41:24;13.00;99.90
7014;DHT22;3547;50.774;12.918;2023-03-23T06:44:08;13.10;99.90
7014;DHT22;3547;50.774;12.918;2023-03-23T06:46:54;13.20;99.90
7014;DHT22;3547;50.774;12.918;2023-03-23T06:49:20;13.20;99.90
7014;DHT22;3547;50.774;12.918;2023-03-23T06:51:46;13.30;99.90
7014;DHT22;3547;50.774;12.918;2023-03-23T06:54:13;13.40;99.90
7014;DHT22;3547;50.774;12.918;2023-03-23T06:56:39;13.40;99.90
7014;DHT22;3547;50.774;12.918;2023-03-23T06:59:05;13.60;99.90
7014;DHT22;3547;50.774;12.918;2023-03-23T07:01:31;13.70;99.90
7014;DHT22;3547;50.774;12.918;2023-03-23T07:03:57;13.80;99.90
7014;DHT22;3547;50.774;12.918;2023-03-23T07:06:24;14.00;99.90
7014;DHT22;3547;50.774;12.918;2023-03-23T07:08:53;13.90;99.90
7014;DHT22;3547;50.774;12.918;2023-03-23T07:11:19;13.90;99.90
7014;DHT22;3547;50.774;12.918;2023-03-23T07:13:45;13.90;99.90
7014;DHT22;3547;50.774;12.918;2023-03-23T07:16:32;13.80;99.90
7014;DHT22;3547;50.774;12.918;2023-03-23T07:18:59;13.80;99.90
7014;DHT22;3547;50.774;12.918;2023-03-23T07:21:26;13.90;99.90
7014;DHT22;3547;50.774;12.918;2023-03-23T07:23:52;13.90;99.90
7014;DHT22;3547;50.774;12.918;2023-03-23T07:26:21;13.90;99.90
7014;DHT22;3547;50.774;12.918;2023-03-23T07:28:51;14.00;99.90
7014;DHT22;3547;50.774;12.918;2023-03-23T07:33:49;14.10;99.90
7014;DHT22;3547;50.774;12.918;2023-03-23T07:36:29;14.20;99.90
7014;DHT22;3547;50.774;12.918;2023-03-23T07:38:55;14.10;99.90
7014;DHT22;3547;50.774;12.918;2023-03-23T07:41:23;14.10;99.90
7014;DHT22;3547;50.774;12.918;2023-03-23T07:46:25;13.90;99.90
7014;DHT22;3547;50.774;12.918;2023-03-23T07:48:51;14.00;99.90
7014;DHT22;3547;50.774;12.918;2023-03-23T07:51:18;14.00;99.90
7014;DHT22;3547;50.774;12.918;2023-03-23T07:53:44;14.00;99.90
7014;DHT22;3547;50.774;12.918;2023-03-23T07:56:11;13.90;99.90
7014;DHT22;3547;50.774;12.918;2023-03-23T07:58:42;14.00;99.90
7014;DHT22;3547;50.774;12.918;2023-03-23T08:01:13;14.10;99.90
7014;DHT22;3547;50.774;12.918;2023-03-23T08:03:40;14.20;99.90
7014;DHT22;3547;50.774;12.918;2023-03-23T08:06:09;14.40;99.90
7014;DHT22;3547;50.774;12.918;2023-03-23T08:08:36;14.50;99.90
7014;DHT22;3547;50.774;12.918;2023-03-23T08:11:03;14.50;99.90
7014;DHT22;3547;50.774;12.918;2023-03-23T08:13:32;14.40;99.90
7014;DHT22;3547;50.774;12.918;2023-03-23T08:15:59;14.40;99.90
7014;DHT22;3547;50.774;12.918;2023-03-23T08:18:34;14.30;99.90
7014;DHT22;3547;50.774;12.918;2023-03-23T08:28:48;14.10;99.90
7014;DHT22;3547;50.774;12.918;2023-03-23T08:31:15;13.80;99.90
7014;DHT22;3547;50.774;12.918;2023-03-23T08:34:06;13.70;99.90
7014;DHT22;3547;50.774;12.918;2023-03-23T08:37:08;13.50;99.90
7014;DHT22;3547;50.774;12.918;2023-03-23T08:39:35;13.50;99.90
7014;DHT22;3547;50.774;12.918;2023-03-23T08:42:01;13.40;99.90
7014;DHT22;3547;50.774;12.918;2023-03-23T08:44:31;13.30;99.90
7014;DHT22;3547;50.774;12.918;2023-03-23T08:47:18;13.40;99.90
7014;DHT22;3547;50.774;12.918;2023-03-23T08:49:44;13.30;99.90
7014;DHT22;3547;50.774;12.918;2023-03-23T08:52:11;13.40;99.90
7014;DHT22;3547;50.774;12.918;2023-03-23T08:54:57;13.50;99.90
7014;DHT22;3547;50.774;12.918;2023-03-23T08:57:27;13.50;99.90
7014;DHT22;3547;50.774;12.918;2023-03-23T08:59:53;13.50;99.90
7014;DHT22;3547;50.774;12.918;2023-03-23T09:02:20;13.60;99.90
7014;DHT22;3547;50.774;12.918;2023-03-23T09:04:46;13.60;99.90
7014;DHT22;3547;50.774;12.918;2023-03-23T09:07:13;13.70;99.90
7014;DHT22;3547;50.774;12.918;2023-03-23T09:09:41;13.80;99.90
7014;DHT22;3547;50.774;12.918;2023-03-23T09:12:08;13.80;99.90
7014;DHT22;3547;50.774;12.918;2023-03-23T09:14:35;13.70;99.90
7014;DHT22;3547;50.774;12.918;2023-03-23T09:23:05;14.30;99.90
7014;DHT22;3547;50.774;12.918;2023-03-23T09:25:36;14.10;99.90
7014;DHT22;3547;50.774;12.918;2023-03-23T09:28:02;14.20;99.90
7014;DHT22;3547;50.774;12.918;2023-03-23T09:30:31;14.20;99.90
7014;DHT22;3547;50.774;12.918;2023-03-23T09:33:14;14.30;99.90
7014;DHT22;3547;50.774;12.918;2023-03-23T09:38:20;14.60;99.90
7014;DHT22;3547;50.774;12.918;2023-03-23T09:41:24;14.70;99.90
7014;DHT22;3547;50.774;12.918;2023-03-23T09:44:24;14.60;99.90
7014;DHT22;3547;50.774;12.918;2023-03-23T09:49:26;14.80;99.90
7014;DHT22;3547;50.774;12.918;2023-03-23T09:54:23;14.40;99.90
7014;DHT22;3547;50.774;12.918;2023-03-23T09:56:50;14.40;99.90
7014;DHT22;3547;50.774;12.918;2023-03-23T10:01:52;14.40;99.90
7014;DHT22;3547;50.774;12.918;2023-03-23T10:04:41;14.30;99.90
7014;DHT22;3547;50.774;12.918;2023-03-23T10:07:19;14.50;99.90
7014;DHT22;3547;50.774;12.918;2023-03-23T10:09:49;14.60;99.90
7014;DHT22;3547;50.774;12.918;2023-03-23T10:12:45;14.90;99.90
7014;DHT22;3547;50.774;12.918;2023-03-23T11:26:22;13.50;99.90
7014;DHT22;3547;50.774;12.918;2023-03-23T11:37:11;13.80;99.90
7014;DHT22;3547;50.774;12.918;2023-03-23T11:39:56;13.80;99.90
7014;DHT22;3547;50.774;12.918;2023-03-23T11:48:18;14.00;99.90
7014;DHT22;3547;50.774;12.918;2023-03-23T11:51:12;14.20;99.90
7014;DHT22;3547;50.774;12.918;2023-03-23T11:54:15;14.40;99.90
7014;DHT22;3547;50.774;12.918;2023-03-23T11:56:49;14.70;99.90
7014;DHT22;3547;50.774;12.918;2023-03-23T12:05:39;15.00;99.90
7014;DHT22;3547;50.774;12.918;2023-03-23T12:08:14;14.80;99.90
7014;DHT22;3547;50.774;12.918;2023-03-23T12:19:43;14.80;99.90
7014;DHT22;3547;50.774;12.918;2023-03-23T12:26:15;15.20;99.90
7014;DHT22;3547;50.774;12.918;2023-03-23T12:31:25;15.20;99.90
7014;DHT22;3547;50.774;12.918;2023-03-23T12:34:17;15.20;99.90
7014;DHT22;3547;50.774;12.918;2023-03-23T12:39:50;14.80;99.90
7014;DHT22;3547;50.774;12.918;2023-03-23T12:51:37;14.60;99.90
7014;DHT22;3547;50.774;12.918;2023-03-23T12:54:26;14.30;99.90
7014;DHT22;3547;50.774;12.918;2023-03-23T13:05:51;14.60;99.90
7014;DHT22;3547;50.774;12.918;2023-03-23T13:08:47;14.50;99.90
7014;DHT22;3547;50.774;12.918;2023-03-23T13:11:25;14.70;99.90
7014;DHT22;3547;50.774;12.918;2023-03-23T13:26:20;16.10;99.90
7014;DHT22;3547;50.774;12.918;2023-03-23T13:55:42;15.40;99.90
7014;DHT22;3547;50.774;12.918;2023-03-23T14:01:17;15.70;99.90
7014;DHT22;3547;50.774;12.918;2023-03-23T14:14:20;16.80;99.90
7014;DHT22;3547;50.774;12.918;2023-03-23T14:16:51;16.30;99.90
7014;DHT22;3547;50.774;12.918;2023-03-23T14:19:27;16.20;99.90
7014;DHT22;3547;50.774;12.918;2023-03-23T14:22:22;16.30;99.90
7014;DHT22;3547;50.774;12.918;2023-03-23T14:25:21;16.30;99.90
7014;DHT22;3547;50.774;12.918;2023-03-23T15:14:23;14.40;99.90
7014;DHT22;3547;50.774;12.918;2023-03-23T15:17:39;14.30;99.90
7014;DHT22;3547;50.774;12.918;2023-03-23T15:22:45;14.40;99.90
7014;DHT22;3547;50.774;12.918;2023-03-23T15:29:22;14.50;99.90
7014;DHT22;3547;50.774;12.918;2023-03-23T15:38:43;14.00;99.90
7014;DHT22;3547;50.774;12.918;2023-03-23T16:13:51;13.10;99.90
7014;DHT22;3547;50.774;12.918;2023-03-23T16:18:54;13.20;99.90
7014;DHT22;3547;50.774;12.918;2023-03-23T16:24:00;12.90;99.90
7014;DHT22;3547;50.774;12.918;2023-03-23T16:26:28;12.90;99.90
7014;DHT22;3547;50.774;12.918;2023-03-23T16:28:55;12.80;99.90
7014;DHT22;3547;50.774;12.918;2023-03-23T16:31:21;12.90;99.90
7014;DHT22;3547;50.774;12.918;2023-03-23T16:33:47;12.90;99.90
7014;DHT22;3547;50.774;12.918;2023-03-23T16:36:14;12.90;99.90
7014;DHT22;3547;50.774;12.918;2023-03-23T16:38:41;12.90;99.90
7014;DHT22;3547;50.774;12.918;2023-03-23T16:41:07;13.00;99.90
7014;DHT22;3547;50.774;12.918;2023-03-23T16:43:34;13.10;99.90
7014;DHT22;3547;50.774;12.918;2023-03-23T16:46:01;13.10;99.90
7014;DHT22;3547;50.774;12.918;2023-03-23T16:48:27;13.10;99.90
7014;DHT22;3547;50.774;12.918;2023-03-23T16:58:41;12.90;99.90
7014;DHT22;3547;50.774;12.918;2023-03-23T17:01:07;12.90;99.90
7014;DHT22;3547;50.774;12.918;2023-03-23T17:03:33;12.80;99.90
7014;DHT22;3547;50.774;12.918;2023-03-23T17:06:00;12.90;99.90
7014;DHT22;3547;50.774;12.918;2023-03-23T17:18:50;12.70;99.90
7014;DHT22;3547;50.774;12.918;2023-03-23T17:29:04;12.70;99.90
7014;DHT22;3547;50.774;12.918;2023-03-23T17:31:30;12.70;99.90
7014;DHT22;3547;50.774;12.918;2023-03-23T17:39:17;12.70;99.90
7014;DHT22;3547;50.774;12.918;2023-03-23T17:41:43;12.60;99.90
7014;DHT22;3547;50.774;12.918;2023-03-23T17:44:09;12.60;99.90
7014;DHT22;3547;50.774;12.918;2023-03-23T17:46:35;12.60;99.90
7014;DHT22;3547;50.774;12.918;2023-03-23T17:49:02;12.60;99.90
7014;DHT22;3547;50.774;12.918;2023-03-23T17:51:31;12.50;99.90
7014;DHT22;3547;50.774;12.918;2023-03-23T17:53:58;12.50;99.90
7014;DHT22;3547;50.774;12.918;2023-03-23T18:01:36;12.50;99.90
7014;DHT22;3547;50.774;12.918;2023-03-23T18:04:02;12.50;99.90
7014;DHT22;3547;50.774;12.918;2023-03-23T18:06:29;12.50;99.90
7014;DHT22;3547;50.774;12.918;2023-03-23T18:08:55;12.50;99.90
7014;DHT22;3547;50.774;12.918;2023-03-23T18:11:21;12.40;99.90
7014;DHT22;3547;50.774;12.918;2023-03-23T18:13:47;12.30;99.90
7014;DHT22;3547;50.774;12.918;2023-03-23T18:16:20;12.40;99.90
7014;DHT22;3547;50.774;12.918;2023-03-23T18:18:46;12.40;99.90
7014;DHT22;3547;50.774;12.918;2023-03-23T18:21:12;12.40;99.90
7014;DHT22;3547;50.774;12.918;2023-03-23T18:23:38;12.40;99.90
7014;DHT22;3547;50.774;12.918;2023-03-23T18:28:38;12.50;99.90
7014;DHT22;3547;50.774;12.918;2023-03-23T18:31:07;12.50;99.90
7014;DHT22;3547;50.774;12.918;2023-03-23T18:33:35;12.60;99.90
7014;DHT22;3547;50.774;12.918;2023-03-23T18:36:05;12.60;99.90
7014;DHT22;3547;50.774;12.918;2023-03-23T18:38:32;12.60;99.90
7014;DHT22;3547;50.774;12.918;2023-03-23T18:40:58;12.60;99.90
7014;DHT22;3547;50.774;12.918;2023-03-23T18:43:25;12.60;99.90
7014;DHT22;3547;50.774;12.918;2023-03-23T18:49:13;12.50;99.90
7014;DHT22;3547;50.774;12.918;2023-03-23T18:51:42;12.50;99.90
7014;DHT22;3547;50.774;12.918;2023-03-23T18:54:09;12.40;99.90
7014;DHT22;3547;50.774;12.918;2023-03-23T18:56:35;12.50;99.90
7014;DHT22;3547;50.774;12.918;2023-03-23T18:59:01;12.40;99.90
7014;DHT22;3547;50.774;12.918;2023-03-23T19:01:27;12.40;99.90
7014;DHT22;3547;50.774;12.918;2023-03-23T19:03:53;12.40;99.90
7014;DHT22;3547;50.774;12.918;2023-03-23T19:06:22;12.40;99.90
7014;DHT22;3547;50.774;12.918;2023-03-23T19:08:50;12.40;99.90
7014;DHT22;3547;50.774;12.918;2023-03-23T19:11:17;12.40;99.90
7014;DHT22;3547;50.774;12.918;2023-03-23T19:13:44;12.40;99.90
7014;DHT22;3547;50.774;12.918;2023-03-23T19:16:10;12.40;99.90
7014;DHT22;3547;50.774;12.918;2023-03-23T19:18:36;12.40;99.90
7014;DHT22;3547;50.774;12.918;2023-03-23T19:21:03;12.30;99.90
7014;DHT22;3547;50.774;12.918;2023-03-23T19:23:29;12.30;99.90
7014;DHT22;3547;50.774;12.918;2023-03-23T19:25:56;12.20;99.90
7014;DHT22;3547;50.774;12.918;2023-03-23T19:28:22;12.20;99.90
7014;DHT22;3547;50.774;12.918;2023-03-23T19:30:54;12.20;99.90
7014;DHT22;3547;50.774;12.918;2023-03-23T19:35:57;12.20;99.90
7014;DHT22;3547;50.774;12.918;2023-03-23T19:38:23;12.30;99.90
7014;DHT22;3547;50.774;12.918;2023-03-23T19:40:53;12.30;99.90
7014;DHT22;3547;50.774;12.918;2023-03-23T19:43:20;12.30;99.90
7014;DHT22;3547;50.774;12.918;2023-03-23T19:45:48;12.30;99.90
7014;DHT22;3547;50.774;12.918;2023-03-23T19:48:16;12.30;99.90
7014;DHT22;3547;50.774;12.918;2023-03-23T19:50:43;12.30;99.90
7014;DHT22;3547;50.774;12.918;2023-03-23T19:53:11;12.30;99.90
7014;DHT22;3547;50.774;12.918;2023-03-23T19:55:37;12.30;99.90
7014;DHT22;3547;50.774;12.918;2023-03-23T20:05:52;12.20;99.90
7014;DHT22;3547;50.774;12.918;2023-03-23T20:08:23;12.20;99.90
7014;DHT22;3547;50.774;12.918;2023-03-23T20:16:01;12.20;99.90
7014;DHT22;3547;50.774;12.918;2023-03-23T20:18:28;12.20;99.90
7014;DHT22;3547;50.774;12.918;2023-03-23T20:21:05;12.20;99.90
7014;DHT22;3547;50.774;12.918;2023-03-23T20:23:32;12.20;99.90
7014;DHT22;3547;50.774;12.918;2023-03-23T20:29:21;12.20;99.90
7014;DHT22;3547;50.774;12.918;2023-03-23T20:31:47;12.20;99.90
7014;DHT22;3547;50.774;12.918;2023-03-23T20:34:16;12.20;99.90
7014;DHT22;3547;50.774;12.918;2023-03-23T20:36:54;12.10;99.90
7014;DHT22;3547;50.774;12.918;2023-03-23T20:39:21;12.10;99.90
7014;DHT22;3547;50.774;12.918;2023-03-23T20:44:25;12.00;99.90
7014;DHT22;3547;50.774;12.918;2023-03-23T20:46:54;11.90;99.90
7014;DHT22;3547;50.774;12.918;2023-03-23T20:49:24;11.90;99.90
7014;DHT22;3547;50.774;12.918;2023-03-23T20:51:50;11.90;99.90
7014;DHT22;3547;50.774;12.918;2023-03-23T20:54:23;11.90;99.90
7014;DHT22;3547;50.774;12.918;2023-03-23T21:02:30;11.80;99.90
7014;DHT22;3547;50.774;12.918;2023-03-23T21:04:58;11.70;99.90
7014;DHT22;3547;50.774;12.918;2023-03-23T21:07:30;11.70;99.90
7014;DHT22;3547;50.774;12.918;2023-03-23T21:09:56;11.70;99.90
7014;DHT22;3547;50.774;12.918;2023-03-23T21:25:44;11.70;99.90
7014;DHT22;3547;50.774;12.918;2023-03-23T21:28:11;11.70;99.90
7014;DHT22;3547;50.774;12.918;2023-03-23T21:30:39;11.60;99.90
7014;DHT22;3547;50.774;12.918;2023-03-23T21:33:14;11.70;99.90
7014;DHT22;3547;50.774;12.918;2023-03-23T21:35:41;11.60;99.90
7014;DHT22;3547;50.774;12.918;2023-03-23T21:48:32;11.60;99.90
7014;DHT22;3547;50.774;12.918;2023-03-23T21:51:04;11.60;99.90
7014;DHT22;3547;50.774;12.918;2023-03-23T21:56:07;11.60;99.90
7014;DHT22;3547;50.774;12.918;2023-03-23T21:58:35;11.60;99.90
7014;DHT22;3547;50.774;12.918;2023-03-23T22:01:03;11.60;99.90
7014;DHT22;3547;50.774;12.918;2023-03-23T22:03:31;11.60;99.90
7014;DHT22;3547;50.774;12.918;2023-03-23T22:06:03;11.60;99.90
7014;DHT22;3547;50.774;12.918;2023-03-23T22:08:30;11.60;99.90
7014;DHT22;3547;50.774;12.918;2023-03-23T22:11:01;11.60;99.90
7014;DHT22;3547;50.774;12.918;2023-03-23T22:13:29;11.60;99.90
7014;DHT22;3547;50.774;12.918;2023-03-23T22:15:57;11.70;99.90
7014;DHT22;3547;50.774;12.918;2023-03-23T22:18:23;11.70;99.90
7014;DHT22;3547;50.774;12.918;2023-03-23T22:20:50;11.70;99.90
7014;DHT22;3547;50.774;12.918;2023-03-23T22:23:17;11.60;99.90
7014;DHT22;3547;50.774;12.918;2023-03-23T22:25:43;11.60;99.90
7014;DHT22;3547;50.774;12.918;2023-03-23T22:28:09;11.60;99.90
7014;DHT22;3547;50.774;12.918;2023-03-23T22:30:35;11.70;99.90
7014;DHT22;3547;50.774;12.918;2023-03-23T22:33:02;11.70;99.90
7014;DHT22;3547;50.774;12.918;2023-03-23T22:35:28;11.70;99.90
7014;DHT22;3547;50.774;12.918;2023-03-23T22:37:54;11.70;99.90
7014;DHT22;3547;50.774;12.918;2023-03-23T22:40:21;11.70;99.90
7014;DHT22;3547;50.774;12.918;2023-03-23T22:42:49;11.60;99.90
7014;DHT22;3547;50.774;12.918;2023-03-23T22:45:16;11.60;99.90
7014;DHT22;3547;50.774;12.918;2023-03-23T22:47:43;11.60;99.90
7014;DHT22;3547;50.774;12.918;2023-03-23T22:50:09;11.60;99.90
7014;DHT22;3547;50.774;12.918;2023-03-23T22:52:36;11.60;99.90
7014;DHT22;3547;50.774;12.918;2023-03-23T22:55:04;11.60;99.90
7014;DHT22;3547;50.774;12.918;2023-03-23T22:57:31;11.50;99.90
7014;DHT22;3547;50.774;12.918;2023-03-23T22:59:57;11.50;99.90
7014;DHT22;3547;50.774;12.918;2023-03-23T23:02:24;11.50;99.90
7014;DHT22;3547;50.774;12.918;2023-03-23T23:04:51;11.50;99.90
7014;DHT22;3547;50.774;12.918;2023-03-23T23:07:18;11.50;99.90
7014;DHT22;3547;50.774;12.918;2023-03-23T23:09:45;11.50;99.90
7014;DHT22;3547;50.774;12.918;2023-03-23T23:12:12;11.50;99.90
7014;DHT22;3547;50.774;12.918;2023-03-23T23:14:41;11.50;99.90
7014;DHT22;3547;50.774;12.918;2023-03-23T23:17:08;11.40;99.90
7014;DHT22;3547;50.774;12.918;2023-03-23T23:19:35;11.40;99.90
7014;DHT22;3547;50.774;12.918;2023-03-23T23:22:05;11.40;99.90
7014;DHT22;3547;50.774;12.918;2023-03-23T23:24:33;11.40;99.90
7014;DHT22;3547;50.774;12.918;2023-03-23T23:29:43;11.50;99.90
7014;DHT22;3547;50.774;12.918;2023-03-23T23:32:09;11.40;99.90
7014;DHT22;3547;50.774;12.918;2023-03-23T23:34:35;11.50;99.90
7014;DHT22;3547;50.774;12.918;2023-03-23T23:37:02;11.60;99.90
7014;DHT22;3547;50.774;12.918;2023-03-23T23:39:28;11.60;99.90
7014;DHT22;3547;50.774;12.918;2023-03-23T23:41:55;11.60;99.90
7014;DHT22;3547;50.774;12.918;2023-03-23T23:44:21;11.60;99.90
7014;DHT22;3547;50.774;12.918;2023-03-23T23:46:47;11.60;99.90
7014;DHT22;3547;50.774;12.918;2023-03-23T23:57:07;11.70;99.90
7014;DHT22;3547;50.774;12.918;2023-03-23T23:59:34;11.70;99.90
